Карточка аэропорта UWLW

Внимание!
Информация на этой странице в стадии наполнения.
Если вы не увидели какой-то информации, или заметили неточность - пожалуйста сообщите нам!
Спасибо!
Команда RU-STAFF
Название аэропортаВосточный
Название аэропорта (англ.)Vostochny
Превышение252 ft. (76.8 m.)
Координаты54°24', 48°48'
Высота перехода900m
Эшелон переходаQFE>=726mm:FL050; QFE<726:FL060
Коды ответчика6725-6727
Зона ОрВДСамара РПИ (UWWW)
Данные METARUWLW 152300Z 25002MPS 9999 BKN040CB 20/19 Q1012 R02/290150 NOSIG RMK QFE752/1003
Проноз погоды (TAF)UWLW 151958Z 1521/1621 34003MPS 9999 SCT030 TX30/1612Z TN18/1602Z TEMPO 1521/1524 04010G15MPS 2100 -TSRA BR BKN011 BKN016CB TEMPO 1600/1606 0200 FG VV002 TEMPO 1606/1618 VRB15MPS 3100 -TSRA SQ BKN016CB
NOTAMshow/hide NOTAM
AWOS   TABLE

Информация о ВПП

ВПП Длина ВПП (м.) Покрытие Курс ВПП Частота ILS
025000Железобетон20110.1
205000Железобетон200110.1

Диспетчерские позиции


Сценарии



Спутниковое изображение